Time;durP1;ratioP1;P1;durP2;ratioP2;P2;SDS_P1;SDS_P2;PMS_P1;PMS_P2;Temp;Humidity;BMP_temperature;BMP_pressure;BME280_temperature;BME280_humidity;BME280_pressure;Samples;Min_cycle;Max_cycle;Signal;HPM_P1;HPM_P2
2021/04/04 00:05:20;;;;;;;21.97;11.15;;;;;;;6.66;98.14;99388.90;4390134;80;28546;-83
2021/04/04 00:11:22;;;;;;;20.43;9.73;;;;;;;6.64;99.28;99385.11;4385430;79;28620;-83
2021/04/04 00:17:24;;;;;;;19.90;9.90;;;;;;;6.60;100.00;99401.20;4361178;79;28598;-85
2021/04/04 00:23:26;;;;;;;23.40;10.23;;;;;;;6.55;100.00;99397.78;4277155;82;28571;-84
2021/04/04 00:29:29;;;;;;;21.05;9.80;;;;;;;6.50;100.00;99400.72;4272381;82;28567;-83
2021/04/04 00:35:31;;;;;;;19.65;9.95;;;;;;;6.38;100.00;99405.80;4268532;82;28579;-83
2021/04/04 00:41:34;;;;;;;20.70;10.32;;;;;;;6.17;100.00;99415.50;4254379;81;28624;-83
2021/04/04 00:47:37;;;;;;;18.42;9.93;;;;;;;6.40;100.00;99407.76;4241549;82;28662;-83
2021/04/04 00:53:40;;;;;;;21.23;10.38;;;;;;;6.24;100.00;99417.69;4241890;83;28584;-83
2021/04/04 00:59:43;;;;;;;20.20;10.40;;;;;;;6.36;100.00;99418.00;4242051;83;28956;-83
2021/04/04 01:05:50;;;;;;;18.82;9.55;;;;;;;6.40;100.00;99423.78;4280766;81;28637;-83
2021/04/04 01:11:59;;;;;;;18.82;9.33;;;;;;;6.36;100.00;99428.69;4259811;82;28542;-84
2021/04/04 01:18:24;;;;;;;15.98;8.63;;;;;;;6.22;100.00;99423.73;4247010;81;28556;-83
2021/04/04 01:25:03;;;;;;;18.00;9.40;;;;;;;6.27;100.00;99421.83;4337845;81;28612;-84
2021/04/04 01:31:10;;;;;;;18.52;9.33;;;;;;;6.10;100.00;99423.95;4363490;80;28571;-84
2021/04/04 01:37:14;;;;;;;22.15;10.32;;;;;;;6.20;100.00;99421.78;4345384;80;28678;-83
2021/04/04 01:43:17;;;;;;;20.85;10.32;;;;;;;6.34;100.00;99433.39;4327067;80;28587;-84
2021/04/04 01:49:21;;;;;;;17.27;9.40;;;;;;;6.14;100.00;99435.39;4353798;79;28574;-84
2021/04/04 01:55:24;;;;;;;22.00;9.83;;;;;;;5.98;100.00;99437.78;4372363;80;28547;-84
2021/04/04 02:01:29;;;;;;;19.35;9.80;;;;;;;6.07;100.00;99437.17;4359756;80;28570;-84
2021/04/04 02:07:32;;;;;;;19.55;10.60;;;;;;;5.87;100.00;99446.30;4347027;80;28605;-84
2021/04/04 02:13:36;;;;;;;21.33;10.50;;;;;;;5.78;100.00;99446.11;4337030;82;28548;-84
2021/04/04 02:19:39;;;;;;;19.80;9.35;;;;;;;5.74;100.00;99449.66;4280014;80;28642;-85
2021/04/04 02:25:41;;;;;;;18.67;9.48;;;;;;;5.64;100.00;99453.14;4312010;82;28594;-85
2021/04/04 02:31:48;;;;;;;19.00;9.10;;;;;;;5.88;100.00;99452.45;4307239;82;28606;-85
2021/04/04 02:37:51;;;;;;;18.35;9.25;;;;;;;5.40;100.00;99465.28;4298648;82;28562;-85
2021/04/04 02:43:54;;;;;;;20.17;10.95;;;;;;;5.31;100.00;99463.76;4308210;82;28583;-84
2021/04/04 02:49:57;;;;;;;20.05;10.20;;;;;;;5.03;100.00;99463.08;4287147;82;28606;-84
2021/04/04 02:56:01;;;;;;;21.57;10.28;;;;;;;5.14;100.00;99470.61;4287446;82;28570;-84
2021/04/04 03:02:06;;;;;;;21.12;10.15;;;;;;;3.70;100.00;99475.38;4294010;82;28552;-84
2021/04/04 03:08:10;;;;;;;20.13;9.40;;;;;;;3.74;100.00;99475.34;4310378;82;28649;-86
2021/04/04 03:14:12;;;;;;;24.47;10.20;;;;;;;3.67;100.00;99479.22;4293258;82;28550;-86
2021/04/04 03:20:15;;;;;;;21.70;10.13;;;;;;;3.71;100.00;99481.02;4323587;80;28562;-86
2021/04/04 03:26:18;;;;;;;22.45;10.43;;;;;;;3.58;100.00;99478.41;4356329;79;28585;-86
2021/04/04 03:32:21;;;;;;;22.52;10.78;;;;;;;3.59;100.00;99484.09;4376679;79;28552;-86
2021/04/04 03:38:26;;;;;;;23.15;10.43;;;;;;;3.49;100.00;99482.14;4335261;80;28544;-86
2021/04/04 03:44:33;;;;;;;20.88;9.65;;;;;;;3.67;100.00;99481.88;4358908;80;28610;-86
2021/04/04 03:50:37;;;;;;;20.25;9.23;;;;;;;3.59;100.00;99488.07;4353057;80;28562;-84
2021/04/04 03:56:44;;;;;;;19.42;8.35;;;;;;;3.34;100.00;99487.36;4319930;79;28549;-84
2021/04/04 04:02:47;;;;;;;15.38;6.50;;;;;;;3.49;100.00;99492.26;4367971;80;28612;-85
2021/04/04 04:08:50;;;;;;;13.55;5.60;;;;;;;3.33;100.00;99498.97;4351314;80;28606;-84
2021/04/04 04:14:55;;;;;;;13.72;5.65;;;;;;;3.01;100.00;99494.94;4324970;80;28547;-87
2021/04/04 04:20:58;;;;;;;14.25;6.22;;;;;;;3.42;100.00;99499.26;4369744;79;28588;-84
2021/04/04 04:27:00;;;;;;;12.80;5.80;;;;;;;2.99;100.00;99502.73;4364686;79;28555;-85
2021/04/04 04:33:09;;;;;;;11.18;5.53;;;;;;;3.41;100.00;99511.41;4360345;80;28933;-84
2021/04/04 04:39:15;;;;;;;14.00;6.62;;;;;;;3.67;100.00;99504.48;4379550;80;28549;-84
2021/04/04 04:45:35;;;;;;;13.05;5.70;;;;;;;3.75;100.00;99503.59;4378199;80;28606;-84
2021/04/04 04:51:38;;;;;;;13.20;5.72;;;;;;;3.50;100.00;99506.39;4347799;80;28559;-84
2021/04/04 04:57:40;;;;;;;10.50;4.40;;;;;;;3.63;100.00;99519.95;4371990;80;28572;-84
2021/04/04 05:03:46;;;;;;;12.47;5.12;;;;;;;3.20;100.00;99528.77;4367173;80;28558;-86
2021/04/04 05:09:48;;;;;;;11.10;5.12;;;;;;;3.56;100.00;99526.95;4347384;80;28542;-85
2021/04/04 05:15:52;;;;;;;10.38;4.70;;;;;;;3.79;100.00;99522.18;4333731;80;28617;-83
2021/04/04 05:21:55;;;;;;;10.80;5.35;;;;;;;3.62;100.00;99526.27;4248334;82;28621;-85
2021/04/04 05:27:57;;;;;;;10.85;4.55;;;;;;;3.55;100.00;99529.80;4317697;82;28574;-83
2021/04/04 05:34:00;;;;;;;11.73;4.92;;;;;;;3.67;100.00;99527.57;4287186;82;28625;-86
2021/04/04 05:40:03;;;;;;;10.13;4.65;;;;;;;3.90;100.00;99529.79;4287345;82;28558;-86
2021/04/04 05:46:10;;;;;;;9.20;3.85;;;;;;;4.06;100.00;99533.34;4287319;82;28554;-86
2021/04/04 05:52:30;;;;;;;8.33;4.25;;;;;;;4.12;100.00;99535.80;4300378;82;28550;-83
2021/04/04 05:58:49;;;;;;;8.33;3.58;;;;;;;3.73;100.00;99544.98;4303234;81;28548;-85
2021/04/04 06:05:20;;;;;;;9.55;4.28;;;;;;;4.18;100.00;99557.20;4306484;82;28602;-83
2021/04/04 06:12:09;;;;;;;6.15;3.12;;;;;;;3.75;100.00;99568.27;4284858;82;28700;-84
2021/04/04 06:18:37;;;;;;;8.85;3.83;;;;;;;4.38;100.00;99565.25;4315128;81;28559;-83
2021/04/04 06:24:56;;;;;;;6.80;3.45;;;;;;;4.41;100.00;99564.88;4338339;80;28559;-85
2021/04/04 06:31:34;;;;;;;8.90;4.20;;;;;;;4.92;100.00;99566.13;4370052;79;28551;-88
2021/04/04 06:37:59;;;;;;;8.60;4.10;;;;;;;4.67;100.00;99557.01;4343520;80;28620;-81
2021/04/04 06:44:20;;;;;;;7.00;3.45;;;;;;;5.03;100.00;99558.50;4355351;80;28631;-81
2021/04/04 06:50:23;;;;;;;8.55;3.87;;;;;;;5.24;100.00;99554.29;4370520;79;28577;-82
2021/04/04 06:56:51;;;;;;;8.68;4.08;;;;;;;5.41;100.00;99559.45;4318242;80;28542;-82
2021/04/04 07:03:02;;;;;;;7.03;3.95;;;;;;;5.62;100.00;99567.21;4347327;81;28619;-83
2021/04/04 07:09:46;;;;;;;8.15;3.80;;;;;;;5.50;100.00;99559.69;4336657;81;28573;-81
2021/04/04 07:16:28;;;;;;;9.45;3.77;;;;;;;6.15;93.00;99561.72;4342056;81;28632;-87
2021/04/04 07:22:58;;;;;;;6.37;3.20;;;;;;;5.99;85.85;99568.08;4328431;80;28631;-84
2021/04/04 07:29:26;;;;;;;7.15;4.22;;;;;;;6.58;84.88;99572.90;4343030;80;28604;-85
2021/04/04 07:35:51;;;;;;;8.28;4.25;;;;;;;6.35;91.00;99582.43;4329167;81;28554;-82
2021/04/04 07:42:15;;;;;;;7.80;3.47;;;;;;;5.78;89.95;99585.70;4326353;80;28589;-81
2021/04/04 07:48:28;;;;;;;7.40;3.87;;;;;;;6.10;83.56;99590.81;4335637;79;28586;-84
2021/04/04 07:54:39;;;;;;;8.23;5.10;;;;;;;6.64;82.26;99592.19;4369828;79;28604;-84
2021/04/04 08:01:03;;;;;;;7.80;4.60;;;;;;;7.03;82.63;99587.85;4346998;80;28590;-85
2021/04/04 08:07:23;;;;;;;5.33;3.22;;;;;;;6.79;77.15;99598.80;4337318;79;28576;-86
2021/04/04 08:13:42;;;;;;;5.53;3.47;;;;;;;7.12;77.15;99597.38;4348567;79;28758;-84
2021/04/04 08:19:49;;;;;;;6.95;3.77;;;;;;;7.53;71.99;99596.63;4338561;80;28570;-85
2021/04/04 08:26:01;;;;;;;6.53;3.42;;;;;;;7.79;72.08;99585.75;4342183;80;28618;-85
2021/04/04 08:32:07;;;;;;;5.70;3.22;;;;;;;8.03;72.39;99590.26;4361183;80;28573;-85
2021/04/04 08:38:15;;;;;;;5.33;3.20;;;;;;;8.01;70.67;99588.30;4351691;79;28565;-88
2021/04/04 08:44:32;;;;;;;5.55;3.22;;;;;;;8.36;71.04;99594.88;4333074;81;28575;-89
2021/04/04 08:50:37;;;;;;;7.67;3.12;;;;;;;8.59;68.56;99584.86;4358761;80;28578;-88
2021/04/04 08:56:45;;;;;;;8.08;3.70;;;;;;;8.24;66.50;99588.47;4334019;80;28675;-89
2021/04/04 09:03:09;;;;;;;7.55;3.35;;;;;;;8.04;62.38;99587.08;4352445;79;28610;-86
2021/04/04 09:09:30;;;;;;;5.50;2.65;;;;;;;7.99;66.69;99581.48;4388956;79;28615;-87
2021/04/04 09:15:35;;;;;;;7.17;3.42;;;;;;;8.07;64.63;99580.81;4338712;81;28556;-86
2021/04/04 09:21:44;;;;;;;4.60;2.92;;;;;;;8.36;62.81;99573.98;4344170;80;28617;-87
2021/04/04 09:27:46;;;;;;;5.22;2.55;;;;;;;8.56;59.85;99571.88;4254864;81;28590;-86
2021/04/04 09:40:21;;;;;;;4.35;2.17;;;;;;;8.36;56.20;99571.30;4426772;79;63341;-92
2021/04/04 09:46:23;;;;;;;4.20;1.80;;;;;;;8.51;52.55;99569.27;4381213;79;28590;-92
2021/04/04 09:52:29;;;;;;;2.67;1.40;;;;;;;8.51;53.85;99568.47;4363272;79;28609;-87
2021/04/04 09:58:32;;;;;;;2.83;1.82;;;;;;;8.71;49.18;99563.11;4372309;80;28572;-89
2021/04/04 10:04:44;;;;;;;4.10;1.90;;;;;;;8.61;50.74;99559.51;4388480;79;28631;-86
2021/04/04 10:10:54;;;;;;;5.53;2.37;;;;;;;8.31;50.68;99560.34;4356050;79;28605;-88
2021/04/04 10:17:13;;;;;;;4.83;2.10;;;;;;;8.30;50.92;99557.36;4377580;79;28559;-85
2021/04/04 10:23:16;;;;;;;4.45;1.87;;;;;;;8.71;51.72;99556.41;4390261;79;28561;-89
2021/04/04 10:29:26;;;;;;;5.30;2.15;;;;;;;8.72;52.37;99553.22;4367970;80;28579;-89
2021/04/04 10:35:34;;;;;;;3.95;2.05;;;;;;;8.75;54.80;99549.62;4373183;79;28596;-89
2021/04/04 10:41:37;;;;;;;3.85;2.15;;;;;;;8.35;55.42;99547.69;4380471;80;28596;-88
2021/04/04 10:47:42;;;;;;;5.72;2.27;;;;;;;8.49;53.56;99546.38;4380866;80;28597;-90
2021/04/04 10:53:46;;;;;;;7.72;3.22;;;;;;;8.47;56.94;99543.06;4386845;80;28660;-87
2021/04/04 10:59:48;;;;;;;7.50;3.62;;;;;;;8.48;64.25;99529.47;4399975;79;28582;-90
2021/04/04 11:05:51;;;;;;;5.92;3.35;;;;;;;8.51;64.46;99527.73;4373047;80;28553;-87
2021/04/04 11:11:58;;;;;;;4.83;2.47;;;;;;;8.48;62.57;99520.59;4376179;80;28596;-88
2021/04/04 11:18:02;;;;;;;;;;;;;;;8.33;58.17;99515.42;4393037;80;28563;-89
2021/04/04 11:24:11;;;;;;;4.97;2.62;;;;;;;8.65;56.64;99516.51;4382845;80;20225;-89
2021/04/04 11:30:30;;;;;;;3.87;2.17;;;;;;;8.91;56.34;99512.67;4397140;80;28585;-90
2021/04/04 11:36:37;;;;;;;4.85;2.00;;;;;;;8.89;52.77;99506.16;4375989;80;28545;-87
2021/04/04 11:42:42;;;;;;;4.62;2.30;;;;;;;8.96;50.50;99504.00;4385692;79;28600;-87
2021/04/04 11:48:44;;;;;;;4.35;2.05;;;;;;;8.72;51.16;99504.44;4385990;79;28559;-86
2021/04/04 11:54:55;;;;;;;5.53;2.20;;;;;;;8.91;49.01;99493.91;4230455;82;28651;-84
2021/04/04 12:00:59;;;;;;;5.08;2.10;;;;;;;8.50;52.71;99482.37;4232183;82;28596;-85
2021/04/04 12:07:16;;;;;;;4.95;2.22;;;;;;;8.88;50.86;99469.66;4283919;82;28569;-84
2021/04/04 12:13:18;;;;;;;2.62;1.32;;;;;;;9.20;50.26;99473.81;4271680;82;28636;-87
2021/04/04 12:19:33;;;;;;;4.05;1.50;;;;;;;9.45;48.28;99458.86;4286774;82;28674;-88
2021/04/04 12:25:35;;;;;;;3.42;1.87;;;;;;;10.04;44.97;99446.13;4283807;82;28560;-85
2021/04/04 12:31:41;;;;;;;2.87;1.30;;;;;;;10.10;43.37;99431.53;4294538;82;28608;-91
2021/04/04 12:37:44;;;;;;;2.60;1.47;;;;;;;10.73;42.65;99437.84;4265369;82;28573;-90
2021/04/04 12:43:47;;;;;;;4.37;1.70;;;;;;;10.51;44.26;99412.72;4263933;82;28621;-89
2021/04/04 12:49:56;;;;;;;4.28;1.82;;;;;;;10.14;41.89;99413.92;4258546;82;28565;-86
2021/04/04 12:56:08;;;;;;;6.33;2.50;;;;;;;10.42;43.30;99405.47;4257785;82;28561;-87
2021/04/04 13:02:23;;;;;;;3.80;1.95;;;;;;;9.43;46.90;99396.02;4438216;79;76985;-88
2021/04/04 13:08:32;;;;;;;4.15;1.75;;;;;;;9.47;50.08;99401.25;4360227;80;28547;-89
2021/04/04 13:14:36;;;;;;;4.72;2.00;;;;;;;9.92;47.94;99394.15;4362513;80;28586;-88
2021/04/04 13:21:08;;;;;;;;;;;;;;;;;;;;;
2021/04/04 13:37:43;;;;;;;3.85;1.80;;;;;;;9.63;47.56;99361.00;4470564;79;67142;-84
2021/04/04 13:43:55;;;;;;;4.33;2.17;;;;;;;10.04;47.68;99364.19;4363920;81;28582;-84
2021/04/04 13:49:59;;;;;;;7.30;1.85;;;;;;;9.74;46.75;99355.46;4235972;83;28625;-86
2021/04/04 13:56:15;;;;;;;3.75;2.00;;;;;;;9.83;48.37;99343.09;4245386;83;28554;-88
2021/04/04 14:02:40;;;;;;;4.22;1.85;;;;;;;9.70;48.33;99334.63;4262401;83;28573;-87
2021/04/04 14:08:43;;;;;;;4.12;1.90;;;;;;;9.74;46.71;99325.92;4271981;83;28629;-87
2021/04/04 14:14:48;;;;;;;3.58;1.90;;;;;;;9.83;48.44;99324.28;4267158;82;28633;-86
2021/04/04 14:20:52;;;;;;;5.25;1.98;;;;;;;9.59;49.20;99318.69;4267536;83;28637;-87
2021/04/04 14:35:05;;;;;;;5.78;1.90;;;;;;;9.55;49.04;99312.12;4042861;86;28574;-86
2021/04/04 14:42:08;;;;;;;5.10;2.20;;;;;;;9.46;49.30;99299.47;4048943;84;28629;-86
2021/04/04 15:10:29;;;;;;;4.85;2.25;;;;;;;8.75;46.13;99264.61;4381485;80;86702;-87
2021/04/04 15:16:31;;;;;;;4.65;1.95;;;;;;;8.70;46.73;99263.10;4270583;82;28565;-87
2021/04/04 15:22:37;;;;;;;4.05;1.70;;;;;;;8.77;47.01;99258.51;4272175;82;28592;-80
2021/04/04 15:28:37;;;;;;;5.05;2.02;;;;;;;8.61;46.66;99251.78;4295649;82;28535;-79
2021/04/04 15:34:41;;;;;;;4.33;1.85;;;;;;;8.43;46.63;99249.77;4282800;82;28541;-81
2021/04/04 15:40:44;;;;;;;4.28;1.80;;;;;;;8.36;46.15;99241.22;4276033;82;28586;-81
2021/04/04 15:46:46;;;;;;;4.53;2.20;;;;;;;8.55;47.41;99238.71;4271975;82;28573;-82
2021/04/04 15:52:50;;;;;;;4.97;2.20;;;;;;;8.44;47.65;99238.01;4279688;82;28626;-80
2021/04/04 15:58:52;;;;;;;4.50;1.87;;;;;;;8.43;48.13;99221.09;4266061;82;28695;-82
2021/04/04 16:04:54;;;;;;;4.72;2.00;;;;;;;8.37;49.48;99211.25;4266982;82;28663;-86
2021/04/04 16:11:04;;;;;;;5.15;2.05;;;;;;;8.33;51.03;99206.83;4281622;82;28575;-89
2021/04/04 16:17:00;;;;;;;6.70;2.50;;;;;;;8.03;50.16;99197.16;4306886;82;28636;-86
2021/04/04 16:23:04;;;;;;;5.42;2.40;;;;;;;8.23;49.78;99189.88;4293473;82;28580;-87
2021/04/04 16:29:22;;;;;;;6.80;3.08;;;;;;;8.11;48.62;99189.40;4267843;82;28595;-84
2021/04/04 16:36:38;;;;;;;;;;;;;;;;;;;;;
2021/04/04 17:48:21;;;;;;;9.30;4.08;;;;;;;5.63;66.74;99164.73;4408275;75;28630;-85
2021/04/04 18:00:52;;;;;;;11.15;5.37;;;;;;;5.08;72.41;99180.83;4586238;75;85101;-83
2021/04/04 18:07:04;;;;;;;12.93;5.05;;;;;;;4.90;73.92;99180.48;4495319;78;28589;-86
2021/04/04 18:12:58;;;;;;;11.43;5.10;;;;;;;4.93;71.60;99185.41;4496303;78;28572;-84
2021/04/04 18:19:01;;;;;;;15.88;5.87;;;;;;;4.75;74.60;99181.34;4520299;78;28538;-84
2021/04/04 18:25:09;;;;;;;13.55;5.60;;;;;;;4.62;75.57;99183.35;4509724;78;28591;-81
2021/04/04 18:31:11;;;;;;;12.25;5.92;;;;;;;4.51;75.37;99177.19;4505846;78;28587;-81
2021/04/04 18:37:14;;;;;;;16.12;6.97;;;;;;;4.30;78.69;99178.31;4512902;78;28605;-83
2021/04/04 18:43:19;;;;;;;15.23;6.45;;;;;;;4.15;81.16;99175.67;4475568;78;28608;-84
2021/04/04 18:49:21;;;;;;;17.50;7.50;;;;;;;4.09;79.97;99169.75;4496821;78;28625;-84
2021/04/04 18:55:25;;;;;;;14.83;6.83;;;;;;;4.01;81.20;99162.70;4499347;78;28648;-82
2021/04/04 19:01:27;;;;;;;17.25;6.60;;;;;;;3.69;85.31;99155.42;4399254;79;28582;-82
2021/04/04 19:07:30;;;;;;;16.87;7.30;;;;;;;3.55;89.94;99152.27;4397935;80;28648;-82
2021/04/04 19:13:34;;;;;;;14.53;6.92;;;;;;;3.49;88.35;99149.31;4383984;79;28657;-82
2021/04/04 19:19:37;;;;;;;17.95;7.87;;;;;;;3.39;91.50;99146.09;4378134;79;28596;-84
2021/04/04 19:25:39;;;;;;;20.10;8.30;;;;;;;3.25;93.72;99144.25;4379707;79;28625;-84
2021/04/04 19:31:44;;;;;;;18.62;8.68;;;;;;;3.13;95.83;99135.39;4415040;79;28598;-84
2021/04/04 19:37:47;;;;;;;18.65;8.33;;;;;;;3.05;95.29;99134.94;4383227;80;28539;-85
2021/04/04 19:43:50;;;;;;;18.27;9.00;;;;;;;3.03;94.73;99130.84;4389547;80;28569;-83
2021/04/04 19:49:52;;;;;;;20.30;8.70;;;;;;;2.87;95.48;99118.52;4391850;80;28582;-83
2021/04/04 19:55:55;;;;;;;22.98;9.88;;;;;;;2.85;96.39;99116.03;4397124;79;28582;-84
2021/04/04 20:01:57;;;;;;;20.60;9.43;;;;;;;2.81;97.30;99109.93;4503476;78;28542;-84
2021/04/04 20:07:59;;;;;;;21.60;9.10;;;;;;;2.69;98.94;99106.38;4503727;78;28654;-84
2021/04/04 20:14:01;;;;;;;18.98;8.60;;;;;;;2.62;99.30;99085.52;4504419;78;28636;-84
2021/04/04 20:20:05;;;;;;;18.23;9.13;;;;;;;2.61;95.71;99083.38;4498100;78;28625;-85
2021/04/04 20:26:07;;;;;;;18.35;8.85;;;;;;;2.42;100.00;99077.22;4495439;78;28637;-86
2021/04/04 20:32:09;;;;;;;19.10;7.90;;;;;;;2.22;100.00;99065.73;4512589;78;28601;-88
2021/04/04 20:38:12;;;;;;;19.07;8.85;;;;;;;2.27;100.00;99062.05;4507754;78;28542;-87
2021/04/04 20:44:14;;;;;;;15.85;8.53;;;;;;;2.04;100.00;99063.37;4501799;78;28902;-88
2021/04/04 20:50:21;;;;;;;20.17;9.60;;;;;;;1.91;100.00;99059.44;4513363;77;28609;-86
2021/04/04 20:56:25;;;;;;;20.27;9.45;;;;;;;1.82;100.00;99049.88;4474699;77;44295;-85
2021/04/04 21:02:28;;;;;;;22.43;9.60;;;;;;;1.94;100.00;99034.41;4506354;78;28547;-86
2021/04/04 21:08:31;;;;;;;18.90;9.08;;;;;;;1.79;100.00;99039.63;4504943;78;37289;-86
2021/04/04 21:14:34;;;;;;;19.23;9.18;;;;;;;1.71;100.00;99025.09;4512287;78;28539;-87
2021/04/04 21:20:36;;;;;;;20.52;9.78;;;;;;;1.66;100.00;99017.17;4511015;78;43966;-86
2021/04/04 21:26:39;;;;;;;23.67;9.23;;;;;;;1.47;100.00;99010.96;4509306;78;43911;-88
2021/04/04 21:32:41;;;;;;;19.35;9.60;;;;;;;1.40;100.00;99010.83;4508286;78;43955;-88
2021/04/04 21:38:43;;;;;;;21.45;9.78;;;;;;;1.47;100.00;99005.17;4509526;78;43920;-87
2021/04/04 21:44:45;;;;;;;20.30;9.60;;;;;;;1.53;100.00;99001.01;4496769;78;43911;-88
2021/04/04 21:50:48;;;;;;;23.32;9.83;;;;;;;1.45;100.00;98987.80;4385697;80;28575;-87
2021/04/04 21:56:50;;;;;;;23.95;9.35;;;;;;;1.29;100.00;98985.53;4401064;80;43917;-87
2021/04/04 22:02:52;;;;;;;21.17;9.43;;;;;;;1.30;100.00;98975.29;4298138;81;28570;-88
2021/04/04 22:08:54;;;;;;;22.32;9.93;;;;;;;1.17;100.00;98969.70;4385016;80;44434;-87
2021/04/04 22:14:57;;;;;;;19.35;9.03;;;;;;;1.21;100.00;98961.75;4296914;81;44256;-88
2021/04/04 22:20:59;;;;;;;19.60;9.00;;;;;;;1.22;100.00;98954.13;4313218;81;28637;-87
2021/04/04 22:27:17;;;;;;;21.10;9.05;;;;;;;1.10;100.00;98946.56;4322015;81;43958;-86
2021/04/04 22:33:19;;;;;;;19.37;9.65;;;;;;;1.15;100.00;98942.08;4308634;81;43921;-87
2021/04/04 22:39:22;;;;;;;20.80;9.80;;;;;;;1.18;100.00;98932.94;4366705;80;44423;-86
2021/04/04 22:45:24;;;;;;;21.65;9.88;;;;;;;1.08;100.00;98919.92;4385384;80;44441;-87
2021/04/04 22:51:28;;;;;;;21.17;9.18;;;;;;;0.90;100.00;98904.28;4376500;80;43957;-88
2021/04/04 22:57:31;;;;;;;19.52;8.93;;;;;;;0.80;100.00;98897.37;4272946;81;43917;-87
2021/04/04 23:03:33;;;;;;;20.80;8.83;;;;;;;0.85;100.00;98896.02;4345687;80;43960;-88
2021/04/04 23:09:35;;;;;;;17.20;8.88;;;;;;;0.72;100.00;98884.64;4366486;80;43937;-88
2021/04/04 23:15:37;;;;;;;17.90;8.13;;;;;;;0.71;100.00;98865.31;4321615;80;43942;-87
2021/04/04 23:21:40;;;;;;;21.17;8.08;;;;;;;0.87;100.00;98853.83;4293876;81;43940;-86
2021/04/04 23:27:42;;;;;;;14.33;7.35;;;;;;;1.03;100.00;98846.78;4295472;82;43908;-90
2021/04/04 23:33:45;;;;;;;17.23;8.90;;;;;;;1.16;100.00;98844.91;4314214;82;43908;-90
2021/04/04 23:39:49;;;;;;;17.35;8.58;;;;;;;0.97;100.00;98821.34;4367095;81;43946;-89
2021/04/04 23:45:53;;;;;;;19.60;8.78;;;;;;;0.70;100.00;98821.32;4368519;81;28561;-89
2021/04/04 23:51:56;;;;;;;16.57;8.45;;;;;;;0.57;100.00;98807.80;4315195;82;43931;-88
2021/04/04 23:57:58;;;;;;;19.23;8.18;;;;;;;0.51;100.00;98798.73;4296571;81;43970;-89
